Terminal Aerodrome Forecast
Issued by NWS Sterling, VA

Current Version | Previous Version | Graphics & Text | Print | Product List | Glossary On
Versions: 1 2 3 4 5 6 7 8 9 10 11 12 13 14 15 16 17 18 19 20 21
000
FTUS41 KLWX 270541
TAFIAD
TAF
KIAD 270541Z 2706/2812 20004KT P6SM SCT070
     FM271800 20005KT P6SM BKN050
     FM272300 19006KT P6SM SCT050
     FM280000 18006KT P6SM FEW080 SCT250=

USA.gov is the U.S. government's official web portal to all federal, state and local government web resources and services.